sensor_id;sensor_type;location;lat;lon;timestamp;pressure;altitude;pressure_sealevel;temperature;humidity
75221;BME280;63802;53.232;6.570;2022-11-03T00:00:07;101371.94;;;10.50;75.41
75221;BME280;63802;53.232;6.570;2022-11-03T00:02:32;101358.56;;;10.45;75.27
75221;BME280;63802;53.232;6.570;2022-11-03T00:04:58;101378.28;;;10.54;74.92
75221;BME280;63802;53.232;6.570;2022-11-03T00:07:43;101347.00;;;10.36;75.43
75221;BME280;63802;53.232;6.570;2022-11-03T00:10:08;101369.59;;;10.48;75.62
75221;BME280;63802;53.232;6.570;2022-11-03T00:12:34;101365.19;;;10.59;74.88
75221;BME280;63802;53.232;6.570;2022-11-03T00:14:59;101359.06;;;10.62;75.42
75221;BME280;63802;53.232;6.570;2022-11-03T00:17:24;101342.28;;;10.48;75.60
75221;BME280;63802;53.232;6.570;2022-11-03T00:19:50;101354.97;;;10.56;75.35
75221;BME280;63802;53.232;6.570;2022-11-03T00:22:15;101360.88;;;10.58;75.19
75221;BME280;63802;53.232;6.570;2022-11-03T00:24:40;101366.81;;;10.60;75.33
75221;BME280;63802;53.232;6.570;2022-11-03T00:27:06;101358.94;;;10.59;75.54
75221;BME280;63802;53.232;6.570;2022-11-03T00:29:31;101372.25;;;10.60;75.31
75221;BME280;63802;53.232;6.570;2022-11-03T00:31:56;101369.06;;;10.58;75.10
75221;BME280;63802;53.232;6.570;2022-11-03T00:34:22;101356.56;;;10.57;75.33
75221;BME280;63802;53.232;6.570;2022-11-03T00:36:47;101357.38;;;10.58;75.13
75221;BME280;63802;53.232;6.570;2022-11-03T00:39:13;101360.25;;;10.49;75.67
75221;BME280;63802;53.232;6.570;2022-11-03T00:41:38;101319.19;;;10.30;75.33
75221;BME280;63802;53.232;6.570;2022-11-03T00:44:05;101353.41;;;10.55;75.53
75221;BME280;63802;53.232;6.570;2022-11-03T00:46:30;101339.28;;;10.53;75.31
75221;BME280;63802;53.232;6.570;2022-11-03T00:48:59;101322.03;;;10.49;75.53
75221;BME280;63802;53.232;6.570;2022-11-03T00:51:27;101319.13;;;10.42;75.63
75221;BME280;63802;53.232;6.570;2022-11-03T00:53:55;101320.47;;;10.48;75.46
75221;BME280;63802;53.232;6.570;2022-11-03T00:56:24;101320.28;;;10.41;76.06
75221;BME280;63802;53.232;6.570;2022-11-03T00:58:51;101313.22;;;10.40;75.88
75221;BME280;63802;53.232;6.570;2022-11-03T01:01:21;101313.31;;;10.44;75.61
75221;BME280;63802;53.232;6.570;2022-11-03T01:03:51;101303.69;;;10.34;76.03
75221;BME280;63802;53.232;6.570;2022-11-03T01:06:43;101300.72;;;10.39;75.99
75221;BME280;63802;53.232;6.570;2022-11-03T01:09:26;101299.34;;;10.45;75.94
75221;BME280;63802;53.232;6.570;2022-11-03T01:14:23;101270.44;;;10.44;75.23
75221;BME280;63802;53.232;6.570;2022-11-03T01:16:49;101268.97;;;10.47;75.43
75221;BME280;63802;53.232;6.570;2022-11-03T01:19:14;101264.56;;;10.42;75.54
75221;BME280;63802;53.232;6.570;2022-11-03T01:21:39;101258.47;;;10.33;75.92
75221;BME280;63802;53.232;6.570;2022-11-03T01:24:05;101267.72;;;10.29;76.06
75221;BME280;63802;53.232;6.570;2022-11-03T01:26:31;101266.41;;;10.38;75.82
75221;BME280;63802;53.232;6.570;2022-11-03T01:28:58;101257.78;;;10.36;75.71
75221;BME280;63802;53.232;6.570;2022-11-03T01:31:24;101264.91;;;10.41;75.82
75221;BME280;63802;53.232;6.570;2022-11-03T01:33:51;101265.16;;;10.36;76.08
75221;BME280;63802;53.232;6.570;2022-11-03T01:36:18;101252.69;;;10.50;75.44
75221;BME280;63802;53.232;6.570;2022-11-03T01:38:44;101254.63;;;10.50;75.35
75221;BME280;63802;53.232;6.570;2022-11-03T01:41:14;101245.28;;;10.35;75.60
75221;BME280;63802;53.232;6.570;2022-11-03T01:43:40;101249.59;;;10.36;75.64
75221;BME280;63802;53.232;6.570;2022-11-03T01:46:16;101254.81;;;10.41;75.86
75221;BME280;63802;53.232;6.570;2022-11-03T01:48:57;101244.06;;;10.48;75.29
75221;BME280;63802;53.232;6.570;2022-11-03T01:51:25;101247.75;;;10.40;75.60
75221;BME280;63802;53.232;6.570;2022-11-03T01:53:53;101251.09;;;10.49;75.47
75221;BME280;63802;53.232;6.570;2022-11-03T01:56:21;101244.66;;;10.42;75.85
75221;BME280;63802;53.232;6.570;2022-11-03T01:58:49;101237.88;;;10.36;75.65
75221;BME280;63802;53.232;6.570;2022-11-03T02:01:18;101243.69;;;10.34;75.91
75221;BME280;63802;53.232;6.570;2022-11-03T02:03:53;101223.28;;;10.28;76.29
75221;BME280;63802;53.232;6.570;2022-11-03T02:06:22;101216.22;;;10.27;75.88
75221;BME280;63802;53.232;6.570;2022-11-03T02:09:01;101232.75;;;10.34;76.28
75221;BME280;63802;53.232;6.570;2022-11-03T02:11:28;101225.56;;;10.26;76.53
75221;BME280;63802;53.232;6.570;2022-11-03T02:14:14;101215.88;;;10.29;76.66
75221;BME280;63802;53.232;6.570;2022-11-03T02:16:53;101203.44;;;10.16;76.70
75221;BME280;63802;53.232;6.570;2022-11-03T02:19:45;101225.56;;;10.26;77.20
75221;BME280;63802;53.232;6.570;2022-11-03T02:27:53;101215.97;;;10.17;77.33
75221;BME280;63802;53.232;6.570;2022-11-03T02:30:19;101217.19;;;10.19;77.63
75221;BME280;63802;53.232;6.570;2022-11-03T02:33:05;101219.91;;;10.19;77.80
75221;BME280;63802;53.232;6.570;2022-11-03T02:35:46;101203.56;;;10.19;77.84
75221;BME280;63802;53.232;6.570;2022-11-03T02:38:16;101187.19;;;10.19;77.47
75221;BME280;63802;53.232;6.570;2022-11-03T02:40:51;101195.38;;;10.19;77.97
75221;BME280;63802;53.232;6.570;2022-11-03T02:43:19;101185.34;;;10.23;77.77
75221;BME280;63802;53.232;6.570;2022-11-03T02:45:46;101182.63;;;10.23;77.80
75221;BME280;63802;53.232;6.570;2022-11-03T02:48:15;101186.13;;;10.24;77.87
75221;BME280;63802;53.232;6.570;2022-11-03T02:50:42;101190.34;;;10.21;78.08
75221;BME280;63802;53.232;6.570;2022-11-03T02:53:11;101188.75;;;10.20;78.00
75221;BME280;63802;53.232;6.570;2022-11-03T02:58:45;101184.78;;;10.18;78.40
75221;BME280;63802;53.232;6.570;2022-11-03T03:03:57;101181.81;;;10.23;78.33
75221;BME280;63802;53.232;6.570;2022-11-03T03:06:25;101181.13;;;10.26;78.11
75221;BME280;63802;53.232;6.570;2022-11-03T03:09:02;101178.75;;;10.24;78.53
75221;BME280;63802;53.232;6.570;2022-11-03T03:11:28;101180.31;;;10.25;78.49
75221;BME280;63802;53.232;6.570;2022-11-03T03:14:24;101179.63;;;10.28;78.33
75221;BME280;63802;53.232;6.570;2022-11-03T03:16:59;101166.44;;;10.30;78.29
75221;BME280;63802;53.232;6.570;2022-11-03T03:22:00;101143.13;;;10.17;78.30
75221;BME280;63802;53.232;6.570;2022-11-03T03:24:57;101173.66;;;10.38;78.33
75221;BME280;63802;53.232;6.570;2022-11-03T03:27:26;101165.91;;;10.40;78.19
75221;BME280;63802;53.232;6.570;2022-11-03T03:30:01;101160.00;;;10.38;78.28
75221;BME280;63802;53.232;6.570;2022-11-03T03:32:30;101149.44;;;10.37;78.65
75221;BME280;63802;53.232;6.570;2022-11-03T03:34:58;101150.22;;;10.37;78.36
75221;BME280;63802;53.232;6.570;2022-11-03T03:37:25;101146.44;;;10.42;78.32
75221;BME280;63802;53.232;6.570;2022-11-03T03:39:54;101143.44;;;10.47;78.25
75221;BME280;63802;53.232;6.570;2022-11-03T03:42:23;101130.44;;;10.40;78.41
75221;BME280;63802;53.232;6.570;2022-11-03T03:44:51;101145.47;;;10.50;78.32
75221;BME280;63802;53.232;6.570;2022-11-03T03:47:22;101143.56;;;10.50;78.30
75221;BME280;63802;53.232;6.570;2022-11-03T03:49:49;101145.75;;;10.45;78.43
75221;BME280;63802;53.232;6.570;2022-11-03T03:52:14;101145.91;;;10.52;78.87
75221;BME280;63802;53.232;6.570;2022-11-03T03:54:40;101129.81;;;10.47;78.27
75221;BME280;63802;53.232;6.570;2022-11-03T03:57:09;101140.44;;;10.52;78.51
75221;BME280;63802;53.232;6.570;2022-11-03T03:59:36;101101.41;;;10.32;78.52
75221;BME280;63802;53.232;6.570;2022-11-03T04:02:02;101116.44;;;10.42;79.00
75221;BME280;63802;53.232;6.570;2022-11-03T04:04:27;101124.00;;;10.48;78.95
75221;BME280;63802;53.232;6.570;2022-11-03T04:06:53;101094.88;;;10.52;78.84
75221;BME280;63802;53.232;6.570;2022-11-03T04:09:38;101112.81;;;10.53;78.80
75221;BME280;63802;53.232;6.570;2022-11-03T04:12:04;101099.72;;;10.43;78.98
75221;BME280;63802;53.232;6.570;2022-11-03T04:14:48;101101.28;;;10.44;79.32
75221;BME280;63802;53.232;6.570;2022-11-03T04:17:32;101105.78;;;10.52;78.74
75221;BME280;63802;53.232;6.570;2022-11-03T04:20:16;101092.69;;;10.42;78.89
75221;BME280;63802;53.232;6.570;2022-11-03T04:23:00;101084.94;;;10.44;78.74
75221;BME280;63802;53.232;6.570;2022-11-03T04:25:26;101088.09;;;10.46;78.93
75221;BME280;63802;53.232;6.570;2022-11-03T04:27:51;101080.63;;;10.43;78.97
75221;BME280;63802;53.232;6.570;2022-11-03T04:30:19;101069.56;;;10.36;79.66
75221;BME280;63802;53.232;6.570;2022-11-03T04:32:47;101083.91;;;10.33;79.55
75221;BME280;63802;53.232;6.570;2022-11-03T04:35:24;101064.97;;;10.40;79.71
75221;BME280;63802;53.232;6.570;2022-11-03T04:37:54;101061.09;;;10.41;79.71
75221;BME280;63802;53.232;6.570;2022-11-03T04:40:23;101072.72;;;10.38;79.72
75221;BME280;63802;53.232;6.570;2022-11-03T04:42:49;101066.09;;;10.39;79.87
75221;BME280;63802;53.232;6.570;2022-11-03T04:45:31;101061.09;;;10.41;79.40
75221;BME280;63802;53.232;6.570;2022-11-03T04:48:00;101050.38;;;10.33;79.63
75221;BME280;63802;53.232;6.570;2022-11-03T04:50:27;101059.78;;;10.35;79.95
75221;BME280;63802;53.232;6.570;2022-11-03T04:52:55;101055.97;;;10.40;79.67
75221;BME280;63802;53.232;6.570;2022-11-03T04:55:21;101053.63;;;10.38;79.74
75221;BME280;63802;53.232;6.570;2022-11-03T04:57:47;101042.78;;;10.42;79.68
75221;BME280;63802;53.232;6.570;2022-11-03T05:00:17;101047.88;;;10.43;79.49
75221;BME280;63802;53.232;6.570;2022-11-03T05:02:45;101067.84;;;10.47;79.64
75221;BME280;63802;53.232;6.570;2022-11-03T05:05:19;101067.41;;;10.45;79.65
75221;BME280;63802;53.232;6.570;2022-11-03T05:07:47;101059.94;;;10.42;79.82
75221;BME280;63802;53.232;6.570;2022-11-03T05:10:18;101064.59;;;10.42;79.69
75221;BME280;63802;53.232;6.570;2022-11-03T05:12:46;101059.06;;;10.38;80.12
75221;BME280;63802;53.232;6.570;2022-11-03T05:15:41;101058.13;;;10.31;80.44
75221;BME280;63802;53.232;6.570;2022-11-03T05:18:19;101052.56;;;10.27;80.48
75221;BME280;63802;53.232;6.570;2022-11-03T05:23:18;101040.94;;;10.30;80.37
75221;BME280;63802;53.232;6.570;2022-11-03T05:25:51;101044.84;;;10.29;80.79
75221;BME280;63802;53.232;6.570;2022-11-03T05:28:25;101051.00;;;10.26;81.06
75221;BME280;63802;53.232;6.570;2022-11-03T05:30:53;101053.28;;;10.24;80.67
75221;BME280;63802;53.232;6.570;2022-11-03T05:33:33;101052.41;;;10.20;80.56
75221;BME280;63802;53.232;6.570;2022-11-03T05:36:04;101053.03;;;10.29;80.65
75221;BME280;63802;53.232;6.570;2022-11-03T05:38:32;101043.16;;;10.25;80.53
75221;BME280;63802;53.232;6.570;2022-11-03T05:40:59;101045.44;;;10.23;80.93
75221;BME280;63802;53.232;6.570;2022-11-03T05:43:25;101037.19;;;10.19;80.71
75221;BME280;63802;53.232;6.570;2022-11-03T05:45:52;101032.44;;;10.16;81.09
75221;BME280;63802;53.232;6.570;2022-11-03T05:48:33;101019.63;;;10.17;81.14
75221;BME280;63802;53.232;6.570;2022-11-03T05:51:02;101018.63;;;10.09;81.27
75221;BME280;63802;53.232;6.570;2022-11-03T05:53:36;101027.59;;;10.09;81.33
75221;BME280;63802;53.232;6.570;2022-11-03T05:56:05;101006.13;;;10.08;81.53
75221;BME280;63802;53.232;6.570;2022-11-03T05:58:38;101025.19;;;10.08;81.39
75221;BME280;63802;53.232;6.570;2022-11-03T06:03:37;101020.03;;;10.03;81.68
75221;BME280;63802;53.232;6.570;2022-11-03T06:06:12;101002.78;;;9.99;81.55
75221;BME280;63802;53.232;6.570;2022-11-03T06:08:40;101024.34;;;10.04;81.76
75221;BME280;63802;53.232;6.570;2022-11-03T06:11:09;101018.53;;;10.05;81.50
75221;BME280;63802;53.232;6.570;2022-11-03T06:13:39;101005.09;;;9.97;81.77
75221;BME280;63802;53.232;6.570;2022-11-03T06:16:32;101008.25;;;9.99;81.60
75221;BME280;63802;53.232;6.570;2022-11-03T06:19:11;101005.88;;;9.97;82.22
75221;BME280;63802;53.232;6.570;2022-11-03T06:21:38;100998.03;;;9.96;81.90
75221;BME280;63802;53.232;6.570;2022-11-03T06:24:08;101009.13;;;10.03;81.86
75221;BME280;63802;53.232;6.570;2022-11-03T06:26:35;100998.22;;;10.03;81.94
75221;BME280;63802;53.232;6.570;2022-11-03T06:29:01;100991.19;;;10.02;81.70
75221;BME280;63802;53.232;6.570;2022-11-03T06:31:28;100992.69;;;9.99;81.85
75221;BME280;63802;53.232;6.570;2022-11-03T06:33:56;100993.66;;;10.07;81.70
75221;BME280;63802;53.232;6.570;2022-11-03T06:36:25;100982.81;;;10.10;81.77
75221;BME280;63802;53.232;6.570;2022-11-03T06:38:56;100982.66;;;10.19;81.23
75221;BME280;63802;53.232;6.570;2022-11-03T06:41:30;100972.03;;;10.14;81.06
75221;BME280;63802;53.232;6.570;2022-11-03T06:43:57;100975.19;;;10.16;81.18
75221;BME280;63802;53.232;6.570;2022-11-03T06:46:26;100984.50;;;10.15;81.29
75221;BME280;63802;53.232;6.570;2022-11-03T06:48:53;100975.28;;;10.20;81.05
75221;BME280;63802;53.232;6.570;2022-11-03T06:51:21;100977.69;;;10.25;81.16
75221;BME280;63802;53.232;6.570;2022-11-03T06:53:49;100969.19;;;10.26;81.04
75221;BME280;63802;53.232;6.570;2022-11-03T06:56:19;100976.03;;;10.20;81.24
75221;BME280;63802;53.232;6.570;2022-11-03T06:58:45;100976.78;;;10.17;81.29
75221;BME280;63802;53.232;6.570;2022-11-03T07:01:31;100968.47;;;10.29;80.87
75221;BME280;63802;53.232;6.570;2022-11-03T07:04:12;100970.84;;;10.31;80.90
75221;BME280;63802;53.232;6.570;2022-11-03T07:06:39;100953.53;;;10.23;80.83
75221;BME280;63802;53.232;6.570;2022-11-03T07:09:06;100956.78;;;10.29;81.04
75221;BME280;63802;53.232;6.570;2022-11-03T07:11:49;100966.97;;;10.32;80.78
75221;BME280;63802;53.232;6.570;2022-11-03T07:14:21;100961.22;;;10.37;80.71
75221;BME280;63802;53.232;6.570;2022-11-03T07:16:49;100958.41;;;10.33;81.04
75221;BME280;63802;53.232;6.570;2022-11-03T07:19:20;100967.88;;;10.39;80.79
75221;BME280;63802;53.232;6.570;2022-11-03T07:21:53;100936.59;;;10.33;80.40
75221;BME280;63802;53.232;6.570;2022-11-03T07:24:26;100938.34;;;10.41;80.57
75221;BME280;63802;53.232;6.570;2022-11-03T07:29:34;100954.53;;;10.53;80.35
75221;BME280;63802;53.232;6.570;2022-11-03T07:32:00;100941.41;;;10.59;79.92
75221;BME280;63802;53.232;6.570;2022-11-03T07:34:31;100949.69;;;10.62;79.90
75221;BME280;63802;53.232;6.570;2022-11-03T07:36:57;100938.78;;;10.62;79.75
75221;BME280;63802;53.232;6.570;2022-11-03T07:39:31;100943.50;;;10.65;80.20
75221;BME280;63802;53.232;6.570;2022-11-03T07:41:57;100934.59;;;10.68;79.73
75221;BME280;63802;53.232;6.570;2022-11-03T07:44:23;100931.94;;;10.72;79.61
75221;BME280;63802;53.232;6.570;2022-11-03T07:46:49;100935.88;;;10.74;79.83
75221;BME280;63802;53.232;6.570;2022-11-03T07:49:26;100941.47;;;10.82;79.65
75221;BME280;63802;53.232;6.570;2022-11-03T07:51:53;100946.66;;;10.87;79.64
75221;BME280;63802;53.232;6.570;2022-11-03T07:54:30;100926.47;;;10.91;79.64
75221;BME280;63802;53.232;6.570;2022-11-03T07:59:32;100919.91;;;10.96;79.58
75221;BME280;63802;53.232;6.570;2022-11-03T08:01:59;100925.50;;;11.03;79.51
75221;BME280;63802;53.232;6.570;2022-11-03T08:04:32;100921.59;;;11.04;79.85
75221;BME280;63802;53.232;6.570;2022-11-03T08:06:58;100901.34;;;11.05;79.94
75221;BME280;63802;53.232;6.570;2022-11-03T08:09:24;100911.59;;;11.11;79.76
75221;BME280;63802;53.232;6.570;2022-11-03T08:11:50;100907.72;;;11.12;79.66
75221;BME280;63802;53.232;6.570;2022-11-03T08:14:15;100901.47;;;11.12;79.50
75221;BME280;63802;53.232;6.570;2022-11-03T08:16:41;100880.53;;;11.19;79.30
75221;BME280;63802;53.232;6.570;2022-11-03T08:19:07;100906.06;;;11.30;79.52
75221;BME280;63802;53.232;6.570;2022-11-03T08:21:33;100901.09;;;11.36;79.46
75221;BME280;63802;53.232;6.570;2022-11-03T08:23:59;100885.06;;;11.34;79.40
75221;BME280;63802;53.232;6.570;2022-11-03T08:26:24;100877.41;;;11.43;79.06
75221;BME280;63802;53.232;6.570;2022-11-03T08:28:50;100890.88;;;11.56;79.03
75221;BME280;63802;53.232;6.570;2022-11-03T08:31:16;100888.56;;;11.58;78.76
75221;BME280;63802;53.232;6.570;2022-11-03T08:33:42;100878.84;;;11.60;78.66
75221;BME280;63802;53.232;6.570;2022-11-03T08:36:08;100890.06;;;11.78;78.86
75221;BME280;63802;53.232;6.570;2022-11-03T08:38:34;100876.13;;;11.86;78.46
75221;BME280;63802;53.232;6.570;2022-11-03T08:41:00;100873.56;;;11.97;78.25
75221;BME280;63802;53.232;6.570;2022-11-03T08:43:26;100856.84;;;12.05;78.42
75221;BME280;63802;53.232;6.570;2022-11-03T08:45:51;100839.47;;;11.91;78.00
75221;BME280;63802;53.232;6.570;2022-11-03T08:48:21;100856.63;;;12.18;77.69
75221;BME280;63802;53.232;6.570;2022-11-03T08:50:47;100858.69;;;12.28;77.24
75221;BME280;63802;53.232;6.570;2022-11-03T08:53:18;100875.13;;;12.31;77.39
75221;BME280;63802;53.232;6.570;2022-11-03T08:55:47;100859.50;;;12.32;77.57
75221;BME280;63802;53.232;6.570;2022-11-03T08:58:12;100864.28;;;12.38;77.00
75221;BME280;63802;53.232;6.570;2022-11-03T09:00:38;100832.03;;;12.21;77.14
75221;BME280;63802;53.232;6.570;2022-11-03T09:03:03;100862.75;;;12.41;77.43
75221;BME280;63802;53.232;6.570;2022-11-03T09:05:29;100859.59;;;12.39;77.59
75221;BME280;63802;53.232;6.570;2022-11-03T09:07:55;100860.69;;;12.31;77.71
75221;BME280;63802;53.232;6.570;2022-11-03T09:10:20;100865.06;;;12.39;77.91
75221;BME280;63802;53.232;6.570;2022-11-03T09:12:46;100853.78;;;12.44;77.26
75221;BME280;63802;53.232;6.570;2022-11-03T09:15:11;100833.03;;;12.39;77.62
75221;BME280;63802;53.232;6.570;2022-11-03T09:17:37;100844.84;;;12.47;77.60
75221;BME280;63802;53.232;6.570;2022-11-03T09:20:03;100839.44;;;12.54;77.59
75221;BME280;63802;53.232;6.570;2022-11-03T09:22:29;100822.22;;;12.53;77.26
75221;BME280;63802;53.232;6.570;2022-11-03T09:24:54;100830.91;;;12.59;77.22
75221;BME280;63802;53.232;6.570;2022-11-03T09:27:19;100821.56;;;12.63;77.35
75221;BME280;63802;53.232;6.570;2022-11-03T09:29:45;100827.03;;;12.67;77.08
75221;BME280;63802;53.232;6.570;2022-11-03T09:32:11;100820.50;;;12.75;77.12
75221;BME280;63802;53.232;6.570;2022-11-03T09:34:36;100820.03;;;12.69;76.82
75221;BME280;63802;53.232;6.570;2022-11-03T09:37:02;100809.91;;;12.73;77.00
75221;BME280;63802;53.232;6.570;2022-11-03T09:39:27;100813.16;;;12.86;76.67
75221;BME280;63802;53.232;6.570;2022-11-03T09:41:54;100811.59;;;12.85;76.67
75221;BME280;63802;53.232;6.570;2022-11-03T09:44:22;100808.50;;;12.90;76.53
75221;BME280;63802;53.232;6.570;2022-11-03T09:46:47;100792.81;;;12.87;76.75
75221;BME280;63802;53.232;6.570;2022-11-03T09:49:15;100787.06;;;12.99;76.76
75221;BME280;63802;53.232;6.570;2022-11-03T09:51:41;100788.72;;;13.07;76.44
75221;BME280;63802;53.232;6.570;2022-11-03T09:54:12;100784.03;;;13.11;76.19
75221;BME280;63802;53.232;6.570;2022-11-03T09:56:39;100774.28;;;13.14;76.22
75221;BME280;63802;53.232;6.570;2022-11-03T09:59:16;100779.84;;;13.24;75.81
75221;BME280;63802;53.232;6.570;2022-11-03T10:01:44;100760.72;;;13.31;75.83
75221;BME280;63802;53.232;6.570;2022-11-03T10:04:12;100767.44;;;13.44;75.47
75221;BME280;63802;53.232;6.570;2022-11-03T10:06:38;100752.59;;;13.53;75.15
75221;BME280;63802;53.232;6.570;2022-11-03T10:09:07;100748.34;;;13.62;75.16
75221;BME280;63802;53.232;6.570;2022-11-03T10:11:36;100757.38;;;13.66;74.69
75221;BME280;63802;53.232;6.570;2022-11-03T10:14:02;100744.91;;;13.83;74.10
75221;BME280;63802;53.232;6.570;2022-11-03T10:16:28;100742.88;;;13.73;74.47
75221;BME280;63802;53.232;6.570;2022-11-03T10:18:54;100732.72;;;13.70;74.41
75221;BME280;63802;53.232;6.570;2022-11-03T10:21:25;100739.41;;;13.83;74.16
75221;BME280;63802;53.232;6.570;2022-11-03T10:23:51;100739.47;;;13.97;73.70
75221;BME280;63802;53.232;6.570;2022-11-03T10:26:18;100733.56;;;13.95;73.78
75221;BME280;63802;53.232;6.570;2022-11-03T10:29:02;100730.06;;;14.01;73.83
75221;BME280;63802;53.232;6.570;2022-11-03T10:31:32;100734.78;;;14.01;73.24
75221;BME280;63802;53.232;6.570;2022-11-03T10:33:58;100733.56;;;13.95;73.50
75221;BME280;63802;53.232;6.570;2022-11-03T10:36:26;100729.28;;;13.97;73.60
75221;BME280;63802;53.232;6.570;2022-11-03T10:38:52;100717.53;;;14.04;73.30
75221;BME280;63802;53.232;6.570;2022-11-03T10:41:26;100708.91;;;14.02;73.07
75221;BME280;63802;53.232;6.570;2022-11-03T10:46:23;100700.31;;;14.14;72.80
75221;BME280;63802;53.232;6.570;2022-11-03T10:51:31;100673.66;;;14.18;72.16
75221;BME280;63802;53.232;6.570;2022-11-03T10:53:56;100666.66;;;14.45;72.13
75221;BME280;63802;53.232;6.570;2022-11-03T10:56:22;100650.94;;;14.74;70.80
75221;BME280;63802;53.232;6.570;2022-11-03T10:58:48;100656.03;;;14.83;70.54
75221;BME280;63802;53.232;6.570;2022-11-03T11:01:13;100657.19;;;14.78;70.11
75221;BME280;63802;53.232;6.570;2022-11-03T11:03:41;100661.94;;;14.77;70.42
75221;BME280;63802;53.232;6.570;2022-11-03T11:06:24;100661.13;;;14.81;70.60
75221;BME280;63802;53.232;6.570;2022-11-03T11:08:53;100646.97;;;14.86;70.38
75221;BME280;63802;53.232;6.570;2022-11-03T11:11:22;100639.91;;;14.92;70.30
75221;BME280;63802;53.232;6.570;2022-11-03T11:14:20;100632.03;;;15.08;69.98
75221;BME280;63802;53.232;6.570;2022-11-03T11:19:13;100628.75;;;15.48;68.39
75221;BME280;63802;53.232;6.570;2022-11-03T11:24:08;100623.91;;;15.70;66.95
75221;BME280;63802;53.232;6.570;2022-11-03T11:26:34;100612.94;;;15.66;67.10
75221;BME280;63802;53.232;6.570;2022-11-03T11:31:34;100605.13;;;15.58;66.84
75221;BME280;63802;53.232;6.570;2022-11-03T11:36:35;100603.06;;;15.72;66.65
75221;BME280;63802;53.232;6.570;2022-11-03T11:39:03;100602.56;;;15.91;65.07
75221;BME280;63802;53.232;6.570;2022-11-03T11:42:04;100598.59;;;15.96;65.06
75221;BME280;63802;53.232;6.570;2022-11-03T11:52:31;100570.22;;;15.40;66.17
75221;BME280;63802;53.232;6.570;2022-11-03T11:54:56;100562.03;;;15.30;66.40
75221;BME280;63802;53.232;6.570;2022-11-03T11:57:22;100552.59;;;15.34;66.32
75221;BME280;63802;53.232;6.570;2022-11-03T11:59:48;100552.22;;;15.29;66.11
75221;BME280;63802;53.232;6.570;2022-11-03T12:02:33;100544.78;;;15.26;66.10
75221;BME280;63802;53.232;6.570;2022-11-03T12:04:59;100530.63;;;15.24;66.22
75221;BME280;63802;53.232;6.570;2022-11-03T12:07:33;100523.91;;;15.32;65.68
75221;BME280;63802;53.232;6.570;2022-11-03T12:10:18;100521.13;;;15.39;66.15
75221;BME280;63802;53.232;6.570;2022-11-03T12:12:44;100512.88;;;15.42;65.68
75221;BME280;63802;53.232;6.570;2022-11-03T12:15:47;100510.91;;;15.47;65.14
75221;BME280;63802;53.232;6.570;2022-11-03T12:18:39;100512.47;;;15.44;65.71
75221;BME280;63802;53.232;6.570;2022-11-03T12:21:13;100503.84;;;15.42;65.09
75221;BME280;63802;53.232;6.570;2022-11-03T12:23:58;100498.34;;;15.42;65.04
75221;BME280;63802;53.232;6.570;2022-11-03T12:28:49;100488.97;;;15.29;65.42
75221;BME280;63802;53.232;6.570;2022-11-03T12:31:15;100481.94;;;15.24;65.90
75221;BME280;63802;53.232;6.570;2022-11-03T12:33:41;100481.16;;;15.24;65.29
75221;BME280;63802;53.232;6.570;2022-11-03T12:36:08;100467.81;;;15.19;65.37
75221;BME280;63802;53.232;6.570;2022-11-03T12:38:34;100463.16;;;15.16;64.99
75221;BME280;63802;53.232;6.570;2022-11-03T12:40:59;100467.44;;;15.17;64.75
75221;BME280;63802;53.232;6.570;2022-11-03T12:43:44;100462.41;;;15.08;64.26
75221;BME280;63802;53.232;6.570;2022-11-03T12:46:10;100460.81;;;15.11;64.57
75221;BME280;63802;53.232;6.570;2022-11-03T12:48:36;100446.34;;;15.03;64.33
75221;BME280;63802;53.232;6.570;2022-11-03T12:51:01;100444.38;;;15.00;64.57
75221;BME280;63802;53.232;6.570;2022-11-03T12:53:27;100443.22;;;14.98;64.78
75221;BME280;63802;53.232;6.570;2022-11-03T12:55:52;100442.78;;;15.06;64.50
75221;BME280;63802;53.232;6.570;2022-11-03T12:58:18;100439.63;;;15.08;64.89
75221;BME280;63802;53.232;6.570;2022-11-03T13:00:43;100431.00;;;15.06;64.38
75221;BME280;63802;53.232;6.570;2022-11-03T13:03:09;100433.31;;;15.14;63.45
75221;BME280;63802;53.232;6.570;2022-11-03T13:05:34;100442.75;;;15.10;63.69
75221;BME280;63802;53.232;6.570;2022-11-03T13:08:00;100428.59;;;15.15;63.70
75221;BME280;63802;53.232;6.570;2022-11-03T13:10:28;100426.63;;;15.15;63.91
75221;BME280;63802;53.232;6.570;2022-11-03T13:12:54;100411.69;;;15.20;63.90
75221;BME280;63802;53.232;6.570;2022-11-03T13:15:19;100414.25;;;15.41;64.06
75221;BME280;63802;53.232;6.570;2022-11-03T13:17:45;100415.84;;;15.42;63.22
75221;BME280;63802;53.232;6.570;2022-11-03T13:20:10;100405.94;;;15.55;63.00
75221;BME280;63802;53.232;6.570;2022-11-03T13:22:38;100402.41;;;15.55;62.61
75221;BME280;63802;53.232;6.570;2022-11-03T13:25:04;100395.81;;;15.41;63.31
75221;BME280;63802;53.232;6.570;2022-11-03T13:27:29;100392.69;;;15.36;62.98
75221;BME280;63802;53.232;6.570;2022-11-03T13:29:55;100393.13;;;15.31;63.37
75221;BME280;63802;53.232;6.570;2022-11-03T13:32:20;100390.06;;;15.22;63.89
75221;BME280;63802;53.232;6.570;2022-11-03T13:34:46;100383.06;;;15.14;63.38
75221;BME280;63802;53.232;6.570;2022-11-03T13:37:11;100381.50;;;15.13;63.22
75221;BME280;63802;53.232;6.570;2022-11-03T13:39:37;100372.06;;;15.14;63.29
75221;BME280;63802;53.232;6.570;2022-11-03T13:42:02;100385.84;;;15.10;63.61
75221;BME280;63802;53.232;6.570;2022-11-03T13:44:28;100365.00;;;15.13;63.47
75221;BME280;63802;53.232;6.570;2022-11-03T13:46:53;100382.28;;;15.10;62.96
75221;BME280;63802;53.232;6.570;2022-11-03T13:49:19;100372.97;;;14.97;63.31
75221;BME280;63802;53.232;6.570;2022-11-03T13:51:46;100371.78;;;15.01;63.33
75221;BME280;63802;53.232;6.570;2022-11-03T13:54:12;100372.19;;;14.96;63.49